createdAt,value
2022-08-05T00:00:15.938Z,7.13
2022-08-05T00:02:50.483Z,11.40
2022-08-05T00:06:01.839Z,4.38
2022-08-05T00:08:06.338Z,6.75
2022-08-05T00:10:53.295Z,6.47
2022-08-05T00:13:20.647Z,7.13
2022-08-05T00:16:06.178Z,5.63
2022-08-05T00:18:38.010Z,4.63
2022-08-05T00:21:06.856Z,4.68
2022-08-05T00:23:46.894Z,7.00
2022-08-05T00:26:22.100Z,6.25
2022-08-05T00:28:49.807Z,5.57
2022-08-05T00:31:54.419Z,6.05
2022-08-05T00:34:54.550Z,4.55
2022-08-05T00:37:11.022Z,6.45
2022-08-05T00:39:57.074Z,4.65
2022-08-05T00:42:32.488Z,5.57
2022-08-05T00:45:00.142Z,5.65
2022-08-05T00:47:31.612Z,5.50
2022-08-05T00:50:16.373Z,5.28
2022-08-05T00:52:45.428Z,5.13
2022-08-05T00:55:14.927Z,7.10
2022-08-05T00:57:58.655Z,7.32
2022-08-05T01:00:27.001Z,6.63
2022-08-05T01:02:54.525Z,7.45
2022-08-05T01:05:23.506Z,7.07
2022-08-05T01:08:40.885Z,5.57
2022-08-05T01:10:41.997Z,6.68
2022-08-05T01:13:22.374Z,13.65
2022-08-05T01:15:57.618Z,5.88
2022-08-05T01:18:27.485Z,6.43
2022-08-05T01:21:07.969Z,5.80
2022-08-05T01:23:45.471Z,4.38
2022-08-05T01:26:26.228Z,5.63
2022-08-05T01:28:56.977Z,6.30
2022-08-05T01:31:29.362Z,5.80
2022-08-05T01:33:57.861Z,6.43
2022-08-05T01:36:28.456Z,7.72
2022-08-05T01:38:56.159Z,7.40
2022-08-05T01:41:25.611Z,4.25
2022-08-05T01:43:53.588Z,4.47
2022-08-05T01:46:42.395Z,8.73
2022-08-05T01:49:23.054Z,7.60
2022-08-05T01:51:52.055Z,7.88
2022-08-05T01:54:19.803Z,6.22
2022-08-05T01:58:13.190Z,6.13
2022-08-05T01:59:40.646Z,10.30
2022-08-05T02:02:16.523Z,7.88
2022-08-05T02:04:46.291Z,8.32
2022-08-05T02:07:22.156Z,6.72
2022-08-05T02:09:50.124Z,5.72
2022-08-05T02:12:19.356Z,6.32
2022-08-05T02:14:48.422Z,6.32
2022-08-05T02:18:15.214Z,9.40
2022-08-05T02:20:08.853Z,6.35
2022-08-05T02:22:37.544Z,7.90
2022-08-05T02:25:06.495Z,6.13
2022-08-05T02:27:58.048Z,6.20
2022-08-05T02:30:22.929Z,7.85
2022-08-05T02:32:55.759Z,10.73
2022-08-05T02:35:27.942Z,6.97
2022-08-05T02:38:00.450Z,9.27
2022-08-05T02:40:29.801Z,5.72
2022-08-05T02:42:58.121Z,8.48
2022-08-05T02:45:25.712Z,8.10
2022-08-05T02:48:06.730Z,4.93
2022-08-05T02:50:43.970Z,8.43
2022-08-05T02:53:12.015Z,5.85
2022-08-05T02:55:54.729Z,8.65
2022-08-05T02:58:27.464Z,5.30
2022-08-05T03:00:56.500Z,7.60
2022-08-05T03:03:23.944Z,7.55
2022-08-05T03:06:55.387Z,6.05
2022-08-05T03:08:42.596Z,6.80
2022-08-05T03:11:55.114Z,7.18
2022-08-05T03:14:15.539Z,6.55
2022-08-05T03:16:42.939Z,10.23
2022-08-05T03:19:16.911Z,10.88
2022-08-05T03:21:48.977Z,9.63
2022-08-05T03:24:17.239Z,6.40
2022-08-05T03:26:49.308Z,9.15
2022-08-05T03:29:17.458Z,6.88
2022-08-05T03:31:56.476Z,9.32
2022-08-05T03:34:24.855Z,7.43
2022-08-05T03:36:55.731Z,6.13
2022-08-05T03:39:26.826Z,9.68
2022-08-05T03:41:56.359Z,7.70
2022-08-05T03:44:23.935Z,7.50
2022-08-05T03:46:51.303Z,15.32
2022-08-05T03:49:18.682Z,9.50
2022-08-05T03:52:38.672Z,8.23
2022-08-05T03:55:51.364Z,7.07
2022-08-05T03:57:29.003Z,10.98
2022-08-05T04:00:09.485Z,12.23
2022-08-05T04:02:51.969Z,6.85
2022-08-05T04:05:27.847Z,12.65
2022-08-05T04:07:58.177Z,6.32
2022-08-05T04:10:30.796Z,7.05
2022-08-05T04:13:04.039Z,10.32
2022-08-05T04:15:32.793Z,9.57
2022-08-05T04:18:01.603Z,8.65
2022-08-05T04:20:28.977Z,9.05
2022-08-05T04:22:56.352Z,10.52
2022-08-05T04:25:56.449Z,9.82
2022-08-05T04:28:13.246Z,8.65
2022-08-05T04:30:40.682Z,13.23
2022-08-05T04:33:10.323Z,8.95
2022-08-05T04:36:11.244Z,7.03
2022-08-05T04:38:39.555Z,10.73
2022-08-05T04:41:09.654Z,15.98
2022-08-05T04:43:46.597Z,10.88
2022-08-05T04:46:27.692Z,8.65
2022-08-05T04:48:57.986Z,7.05
2022-08-05T04:51:26.149Z,10.15
2022-08-05T04:53:58.037Z,9.57
2022-08-05T04:56:34.587Z,8.38
2022-08-05T04:59:22.243Z,8.93
2022-08-05T05:02:35.389Z,8.68
2022-08-05T05:04:44.010Z,10.85
2022-08-05T05:07:15.780Z,5.90
2022-08-05T05:09:43.431Z,11.40
2022-08-05T05:12:11.849Z,9.55
2022-08-05T05:14:49.262Z,10.23
2022-08-05T05:17:23.517Z,15.65
2022-08-05T05:19:53.646Z,7.13
2022-08-05T05:22:23.570Z,8.27
2022-08-05T05:24:56.788Z,15.05
2022-08-05T05:27:44.636Z,7.97
2022-08-05T05:30:29.304Z,8.43
2022-08-05T05:33:00.568Z,10.27
2022-08-05T05:35:28.981Z,10.80
2022-08-05T05:38:02.148Z,7.68
2022-08-05T05:40:30.132Z,7.68
2022-08-05T05:42:59.636Z,10.68
2022-08-05T05:45:28.349Z,7.03
2022-08-05T05:48:05.722Z,4.45
2022-08-05T05:50:44.120Z,8.50
2022-08-05T05:53:21.557Z,8.68
2022-08-05T05:55:51.464Z,7.57
2022-08-05T05:58:31.691Z,10.93
2022-08-05T06:01:02.497Z,6.95
2022-08-05T06:04:00.351Z,6.57
2022-08-05T06:06:33.029Z,14.70
2022-08-05T06:09:02.085Z,10.63
2022-08-05T06:11:31.383Z,10.15
2022-08-05T06:14:00.303Z,8.55
2022-08-05T06:16:36.733Z,7.47
2022-08-05T06:19:05.798Z,6.18
2022-08-05T06:21:35.917Z,10.15
2022-08-05T06:24:05.900Z,13.60
2022-08-05T06:26:33.949Z,10.68
2022-08-05T06:29:03.499Z,10.10
2022-08-05T06:31:51.191Z,12.80
2022-08-05T06:34:20.119Z,8.73
2022-08-05T06:36:57.829Z,7.97
2022-08-05T06:39:27.191Z,11.77
2022-08-05T06:41:55.374Z,7.65
2022-08-05T06:44:23.231Z,8.48
2022-08-05T06:46:51.980Z,15.70
2022-08-05T06:50:01.597Z,14.05
2022-08-05T06:52:37.276Z,13.85
2022-08-05T06:54:56.410Z,11.20
2022-08-05T06:58:03.158Z,9.38
2022-08-05T07:00:11.664Z,7.43
2022-08-05T07:02:43.960Z,5.95
2022-08-05T07:05:14.215Z,6.47
2022-08-05T07:07:48.860Z,14.32
2022-08-05T07:10:16.640Z,7.05
2022-08-05T07:13:02.248Z,16.80
2022-08-05T07:16:00.777Z,13.95
2022-08-05T07:18:33.096Z,12.95
2022-08-05T07:21:04.781Z,10.32
2022-08-05T07:23:33.073Z,11.27
2022-08-05T07:26:00.786Z,21.38
2022-08-05T07:28:29.447Z,9.77
2022-08-05T07:30:56.957Z,11.18
2022-08-05T07:33:36.527Z,10.32
2022-08-05T07:36:21.218Z,10.60
2022-08-05T07:38:49.267Z,5.80
2022-08-05T07:42:07.651Z,6.72
2022-08-05T07:44:14.115Z,8.75
2022-08-05T07:46:48.290Z,6.65
2022-08-05T07:49:16.175Z,5.05
2022-08-05T07:51:53.656Z,4.65
2022-08-05T07:54:31.465Z,6.65
2022-08-05T07:57:18.131Z,4.15
2022-08-05T07:59:48.971Z,9.95
2022-08-05T08:02:17.803Z,8.65
2022-08-05T08:04:46.052Z,8.27
2022-08-05T08:07:15.124Z,4.18
2022-08-05T08:09:42.720Z,3.90
2022-08-05T08:12:27.377Z,5.90
2022-08-05T08:14:57.641Z,5.25
2022-08-05T08:17:30.364Z,6.65
2022-08-05T08:20:43.428Z,6.93
2022-08-05T08:22:50.946Z,5.30
2022-08-05T08:25:27.065Z,5.85
2022-08-05T08:28:06.502Z,4.65
2022-08-05T08:30:47.938Z,4.35
2022-08-05T08:33:17.633Z,7.00
2022-08-05T08:35:52.817Z,3.95
2022-08-05T08:38:35.896Z,4.68
2022-08-05T08:41:05.928Z,3.97
2022-08-05T08:45:20.090Z,5.40
2022-08-05T08:46:21.757Z,4.15
2022-08-05T08:49:08.034Z,5.95
2022-08-05T08:52:04.306Z,3.80
2022-08-05T08:54:27.426Z,3.95
2022-08-05T08:56:56.430Z,2.47
2022-08-05T08:59:27.584Z,3.95
2022-08-05T09:02:00.958Z,2.00
2022-08-05T09:04:30.424Z,4.88
2022-08-05T09:06:58.615Z,3.20
2022-08-05T09:09:34.963Z,4.07
2022-08-05T09:12:12.573Z,4.43
2022-08-05T09:14:59.130Z,3.33
2022-08-05T09:17:41.220Z,3.65
2022-08-05T09:20:11.283Z,3.90
2022-08-05T09:23:04.859Z,4.32
2022-08-05T09:26:02.468Z,2.22
2022-08-05T09:28:23.339Z,2.45
2022-08-05T09:30:54.993Z,4.57
2022-08-05T09:33:23.753Z,2.80
2022-08-05T09:36:07.713Z,3.20
2022-08-05T09:38:56.323Z,3.47
2022-08-05T09:41:26.181Z,2.45
2022-08-05T09:44:00.190Z,3.20
2022-08-05T09:46:28.496Z,2.17
2022-08-05T09:49:08.358Z,4.28
2022-08-05T09:51:43.828Z,2.35
2022-08-05T09:54:16.408Z,3.35
2022-08-05T09:56:51.770Z,3.58
2022-08-05T09:59:19.993Z,1.65
2022-08-05T10:01:47.969Z,3.80
2022-08-05T10:04:33.077Z,1.17
2022-08-05T10:07:19.712Z,3.60
2022-08-05T10:10:14.108Z,2.28
2022-08-05T10:12:49.351Z,1.90
2022-08-05T10:15:20.158Z,2.50
2022-08-05T10:18:03.328Z,2.30
2022-08-05T10:20:31.208Z,1.60
2022-08-05T10:23:00.772Z,1.27
2022-08-05T10:25:28.335Z,3.10
2022-08-05T10:28:13.146Z,1.63
2022-08-05T10:32:49.009Z,1.35
2022-08-05T10:33:34.282Z,3.08
2022-08-05T10:36:04.429Z,1.23
2022-08-05T10:38:33.094Z,1.88
2022-08-05T10:41:03.902Z,1.83
2022-08-05T10:43:35.814Z,2.90
2022-08-05T10:46:06.704Z,1.35
2022-08-05T10:48:52.408Z,1.52
2022-08-05T10:51:22.087Z,1.92
2022-08-05T10:53:53.574Z,2.30
2022-08-05T10:56:25.971Z,0.90
2022-08-05T10:59:07.086Z,3.25
2022-08-05T11:02:04.959Z,2.10
2022-08-05T11:04:34.342Z,0.88
2022-08-05T11:07:06.365Z,1.88
2022-08-05T11:09:46.648Z,2.53
2022-08-05T11:12:42.292Z,0.95
2022-08-05T11:15:20.202Z,2.75
2022-08-05T11:17:57.863Z,2.92
2022-08-05T11:20:43.875Z,4.93
2022-08-05T11:23:33.321Z,2.42
2022-08-05T11:26:05.014Z,2.00
2022-08-05T11:28:39.550Z,1.42
2022-08-05T11:31:58.375Z,0.68
2022-08-05T11:34:15.877Z,1.52
2022-08-05T11:36:52.959Z,1.38
2022-08-05T11:39:39.572Z,1.35
2022-08-05T11:42:18.191Z,0.63
2022-08-05T11:44:54.158Z,2.00
2022-08-05T11:47:48.524Z,1.58
2022-08-05T11:50:14.393Z,5.13
2022-08-05T11:52:44.085Z,1.08
2022-08-05T11:55:13.671Z,3.70
2022-08-05T11:58:09.499Z,1.52
2022-08-05T12:00:28.832Z,2.35
2022-08-05T12:02:57.863Z,2.17
2022-08-05T12:05:36.417Z,0.73
2022-08-05T12:08:11.292Z,0.85
2022-08-05T12:10:45.061Z,3.35
2022-08-05T12:13:16.814Z,1.33
2022-08-05T12:15:49.616Z,1.60
2022-08-05T12:18:20.699Z,2.47
2022-08-05T12:20:51.629Z,1.15
2022-08-05T12:23:19.020Z,0.60
2022-08-05T12:25:50.032Z,2.35
2022-08-05T12:28:31.038Z,1.45
2022-08-05T12:31:02.423Z,1.98
2022-08-05T12:33:36.430Z,0.63
2022-08-05T12:36:08.170Z,0.57
2022-08-05T12:38:37.158Z,1.23
2022-08-05T12:41:04.661Z,1.45
2022-08-05T12:43:32.367Z,0.45
2022-08-05T12:45:59.834Z,0.95
2022-08-05T12:48:32.951Z,2.80
2022-08-05T12:51:21.798Z,1.65
2022-08-05T12:53:59.260Z,2.25
2022-08-05T12:56:35.030Z,1.88
2022-08-05T12:59:14.472Z,2.72
2022-08-05T13:02:01.160Z,1.10
2022-08-05T13:04:33.917Z,2.65
2022-08-05T13:07:16.177Z,0.88
2022-08-05T13:09:50.835Z,1.33
2022-08-05T13:12:28.454Z,3.33
2022-08-05T13:14:59.216Z,0.75
2022-08-05T13:17:41.379Z,1.40
2022-08-05T13:20:10.380Z,1.75
2022-08-05T13:22:41.151Z,1.58
2022-08-05T13:25:19.259Z,0.77
2022-08-05T13:27:50.510Z,1.75
2022-08-05T13:30:34.167Z,3.40
2022-08-05T13:33:03.647Z,2.05
2022-08-05T13:35:46.951Z,1.63
2022-08-05T13:38:28.319Z,2.70
2022-08-05T13:41:03.642Z,2.83
2022-08-05T13:43:45.759Z,2.25
2022-08-05T13:46:26.448Z,2.05
2022-08-05T13:49:05.898Z,1.08
2022-08-05T13:51:40.881Z,0.43
2022-08-05T13:54:12.752Z,1.70
2022-08-05T13:56:45.144Z,0.93
2022-08-05T13:59:20.164Z,2.25
2022-08-05T14:01:59.236Z,1.02
2022-08-05T14:04:50.403Z,2.70
2022-08-05T14:07:26.175Z,1.33
2022-08-05T14:10:08.438Z,2.67
2022-08-05T14:12:36.086Z,1.35
2022-08-05T14:15:05.868Z,1.35
2022-08-05T14:17:33.812Z,1.58
2022-08-05T14:20:07.561Z,1.40
2022-08-05T14:22:35.359Z,0.70
2022-08-05T14:25:06.195Z,1.73
2022-08-05T14:27:48.384Z,1.23
2022-08-05T14:30:20.499Z,0.77
2022-08-05T14:32:48.774Z,1.58
2022-08-05T14:35:16.202Z,1.70
2022-08-05T14:37:52.176Z,3.20
2022-08-05T14:40:24.311Z,2.40
2022-08-05T14:42:53.405Z,3.92
2022-08-05T14:45:23.285Z,0.85
2022-08-05T14:48:05.368Z,3.72
2022-08-05T14:50:36.044Z,1.88
2022-08-05T14:53:07.321Z,1.10
2022-08-05T14:55:39.108Z,1.90
2022-08-05T14:58:11.782Z,1.40
2022-08-05T15:00:58.448Z,1.98
2022-08-05T15:03:26.474Z,2.60
2022-08-05T15:06:06.915Z,3.33
2022-08-05T15:08:59.662Z,3.08
2022-08-05T15:11:23.553Z,0.47
2022-08-05T15:14:12.207Z,1.45
2022-08-05T15:17:02.156Z,1.20
2022-08-05T15:19:31.422Z,2.38
2022-08-05T15:22:01.056Z,0.75
2022-08-05T15:24:28.738Z,0.85
2022-08-05T15:26:57.137Z,0.90
2022-08-05T15:29:30.132Z,1.40
2022-08-05T15:32:02.347Z,0.40
2022-08-05T15:34:34.879Z,1.38
2022-08-05T15:37:05.092Z,1.00
2022-08-05T15:41:03.179Z,0.63
2022-08-05T15:42:54.556Z,2.10
2022-08-05T15:45:12.666Z,0.73
2022-08-05T15:47:40.357Z,1.25
2022-08-05T15:50:08.084Z,0.75
2022-08-05T15:52:54.467Z,1.20
2022-08-05T15:55:24.561Z,2.47
2022-08-05T15:57:52.154Z,2.53
2022-08-05T16:00:30.503Z,1.20
2022-08-05T16:03:08.401Z,1.35
2022-08-05T16:05:35.981Z,0.68
2022-08-05T16:08:06.421Z,0.98
2022-08-05T16:10:33.784Z,0.95
2022-08-05T16:13:01.150Z,1.23
2022-08-05T16:15:32.473Z,1.83
2022-08-05T16:18:01.260Z,0.80
2022-08-05T16:20:31.816Z,2.72
2022-08-05T16:22:59.890Z,0.43
2022-08-05T16:25:33.782Z,2.00
2022-08-05T16:28:06.133Z,2.15
2022-08-05T16:30:36.190Z,2.80
2022-08-05T16:33:03.816Z,0.30
2022-08-05T16:35:34.601Z,1.35
2022-08-05T16:38:15.678Z,1.63
2022-08-05T16:40:55.497Z,0.93
2022-08-05T16:43:27.660Z,1.85
2022-08-05T16:46:04.010Z,0.82
2022-08-05T16:48:36.899Z,2.08
2022-08-05T16:51:10.042Z,1.73
2022-08-05T16:54:02.811Z,1.42
2022-08-05T16:56:25.574Z,2.83
2022-08-05T16:58:55.216Z,2.92
2022-08-05T17:01:24.576Z,2.58
2022-08-05T17:03:52.233Z,1.73
2022-08-05T17:06:20.126Z,1.88
2022-08-05T17:08:53.914Z,2.20
2022-08-05T17:11:23.509Z,0.50
2022-08-05T17:14:00.662Z,0.93
2022-08-05T17:16:36.446Z,2.55
2022-08-05T17:19:07.303Z,1.88
2022-08-05T17:21:36.754Z,1.98
2022-08-05T17:24:18.407Z,2.17
2022-08-05T17:26:52.300Z,3.08
2022-08-05T17:29:22.797Z,2.53
2022-08-05T17:32:02.843Z,2.35
2022-08-05T17:34:32.560Z,1.08
2022-08-05T17:37:02.285Z,1.02
2022-08-05T17:39:34.680Z,0.85
2022-08-05T17:42:19.103Z,1.80
2022-08-05T17:44:50.442Z,0.70
2022-08-05T17:47:23.049Z,0.75
2022-08-05T17:50:04.205Z,1.73
2022-08-05T17:52:52.528Z,1.27
2022-08-05T17:55:20.403Z,1.17
2022-08-05T17:57:50.045Z,2.95
2022-08-05T18:00:18.582Z,1.05
2022-08-05T18:02:47.711Z,1.55
2022-08-05T18:05:16.822Z,0.98
2022-08-05T18:07:44.956Z,1.30
2022-08-05T18:10:20.855Z,1.05
2022-08-05T18:12:48.899Z,2.08
2022-08-05T18:15:16.289Z,0.75
2022-08-05T18:18:00.667Z,1.45
2022-08-05T18:20:32.570Z,1.25
2022-08-05T18:23:00.666Z,1.88
2022-08-05T18:25:38.798Z,2.58
2022-08-05T18:28:06.699Z,2.55
2022-08-05T18:30:39.033Z,1.63
2022-08-05T18:33:08.394Z,2.03
2022-08-05T18:35:59.804Z,4.90
2022-08-05T18:38:27.293Z,3.45
2022-08-05T18:41:56.736Z,1.33
2022-08-05T18:43:49.148Z,3.13
2022-08-05T18:46:19.955Z,1.55
2022-08-05T18:48:48.012Z,2.47
2022-08-05T18:52:04.620Z,1.40
2022-08-05T18:54:26.145Z,1.17
2022-08-05T18:56:57.156Z,0.70
2022-08-05T18:59:42.633Z,2.08
2022-08-05T19:02:27.761Z,2.85
2022-08-05T19:05:02.073Z,2.55
2022-08-05T19:07:49.790Z,3.35
2022-08-05T19:10:17.450Z,4.25
2022-08-05T19:12:46.087Z,2.00
2022-08-05T19:15:58.081Z,0.98
2022-08-05T19:18:09.352Z,2.13
2022-08-05T19:20:41.418Z,2.47
2022-08-05T19:24:03.825Z,1.45
2022-08-05T19:26:03.098Z,1.63
2022-08-05T19:28:30.837Z,4.22
2022-08-05T19:30:58.252Z,1.85
2022-08-05T19:33:35.664Z,1.20
2022-08-05T19:36:06.417Z,2.08
2022-08-05T19:38:35.714Z,3.65
2022-08-05T19:41:03.951Z,2.22
2022-08-05T19:44:07.011Z,0.77
2022-08-05T19:46:30.394Z,1.75
2022-08-05T19:49:02.878Z,1.40
2022-08-05T19:52:08.267Z,0.95
2022-08-05T19:54:27.000Z,1.33
2022-08-05T19:56:59.118Z,1.50
2022-08-05T19:59:55.859Z,1.83
2022-08-05T20:02:14.911Z,2.58
2022-08-05T20:04:45.882Z,2.05
2022-08-05T20:07:13.980Z,1.65
2022-08-05T20:09:54.656Z,4.05
2022-08-05T20:12:24.579Z,2.03
2022-08-05T20:14:52.883Z,2.92
2022-08-05T20:17:23.637Z,1.38
2022-08-05T20:19:56.984Z,0.73
2022-08-05T20:22:26.972Z,1.70
2022-08-05T20:24:56.390Z,3.47
2022-08-05T20:27:26.701Z,1.38
2022-08-05T20:29:57.753Z,2.53
2022-08-05T20:32:26.216Z,2.47
2022-08-05T20:34:53.818Z,2.30
2022-08-05T20:38:04.712Z,2.40
2022-08-05T20:40:11.563Z,3.92
2022-08-05T20:42:38.957Z,1.73
2022-08-05T20:45:07.266Z,2.70
2022-08-05T20:47:40.187Z,1.85
2022-08-05T20:50:08.370Z,2.28
2022-08-05T20:52:41.482Z,0.98
2022-08-05T20:56:02.742Z,0.98
2022-08-05T20:57:58.004Z,1.05
2022-08-05T21:00:51.874Z,2.08
2022-08-05T21:03:12.986Z,1.38
2022-08-05T21:05:53.697Z,2.15
2022-08-05T21:08:26.850Z,4.63
2022-08-05T21:11:00.489Z,1.52
2022-08-05T21:13:47.869Z,1.23
2022-08-05T21:16:19.751Z,2.13
2022-08-05T21:18:47.120Z,2.20
2022-08-05T21:21:15.111Z,2.10
2022-08-05T21:23:46.402Z,1.35
2022-08-05T21:26:15.109Z,2.53
2022-08-05T21:28:47.863Z,2.88
2022-08-05T21:31:18.365Z,1.70
2022-08-05T21:33:47.755Z,1.55
2022-08-05T21:36:27.615Z,3.58
2022-08-05T21:38:58.508Z,2.15
2022-08-05T21:41:26.044Z,4.50
2022-08-05T21:44:04.451Z,2.40
2022-08-05T21:46:32.200Z,2.05
2022-08-05T21:49:02.104Z,0.70
2022-08-05T21:52:21.625Z,1.00
2022-08-05T21:54:19.462Z,2.15
2022-08-05T21:57:28.373Z,1.02
2022-08-05T22:00:05.313Z,1.75
2022-08-05T22:02:33.939Z,1.58
2022-08-05T22:05:01.336Z,2.30
2022-08-05T22:07:39.331Z,1.02
2022-08-05T22:10:16.257Z,2.28
2022-08-05T22:12:45.054Z,2.88
2022-08-05T22:16:01.808Z,2.30
2022-08-05T22:18:08.612Z,1.65
2022-08-05T22:20:39.185Z,1.10
2022-08-05T22:23:24.526Z,1.50
2022-08-05T22:26:11.645Z,1.17
2022-08-05T22:28:42.444Z,1.20
2022-08-05T22:31:11.288Z,2.60
2022-08-05T22:33:56.944Z,1.77
2022-08-05T22:36:26.037Z,2.90
2022-08-05T22:38:53.743Z,1.95
2022-08-05T22:41:26.492Z,1.90
2022-08-05T22:44:09.241Z,3.05
2022-08-05T22:46:40.018Z,1.65
2022-08-05T22:49:08.256Z,1.98
2022-08-05T22:52:04.549Z,1.88
2022-08-05T22:54:35.108Z,3.85
2022-08-05T22:57:02.823Z,1.83
2022-08-05T22:59:45.010Z,2.80
2022-08-05T23:02:17.725Z,1.35
2022-08-05T23:04:51.604Z,2.55
2022-08-05T23:07:19.792Z,2.15
2022-08-05T23:09:57.307Z,2.03
2022-08-05T23:12:28.636Z,2.88
2022-08-05T23:14:56.365Z,2.50
2022-08-05T23:17:32.765Z,2.17
2022-08-05T23:20:04.722Z,2.05
2022-08-05T23:22:32.859Z,1.95
2022-08-05T23:25:00.553Z,4.68
2022-08-05T23:27:31.264Z,2.70
2022-08-05T23:30:10.656Z,1.45
2022-08-05T23:32:45.093Z,2.45
2022-08-05T23:35:12.842Z,1.70
2022-08-05T23:37:40.218Z,2.03
2022-08-05T23:40:09.570Z,2.33
2022-08-05T23:42:38.975Z,2.45
2022-08-05T23:45:14.474Z,1.75
2022-08-05T23:47:47.687Z,1.13
2022-08-05T23:50:16.992Z,1.33
2022-08-05T23:52:50.113Z,1.85
2022-08-05T23:55:18.113Z,2.05
2022-08-05T23:57:48.997Z,1.27
